The Lakes, Nevada
Current Conditions -  °F | °C
As of 7:53 PM on Tuesday 25 Nov 2014 (Local Time) from KVGT Reporting Station
Clear Clear  
Wind Chill: 47°   Ceiling: Unl
Heat Index: 49°   Visibility: 10mi
Dew Point: 13°   Wind: 5mph
Humidity: 24%   Direction: 320°NW
Pressure: 30.37"   Gusts: NA
Location:  36.14°N, 115.29°W
Report Text: KVGT 260353Z 32004KT 10SM CLR 09/M11 A3037 RMK AO2 SLP307 T00941106
Loading
Personal Weather Stations






























Interactive Weather Map New forecast layout! Learn more

10-Day Weather Forecast

Advertisements
Track Severe Weather on mobile